Latest Weather Observations for Liawenee

IDT60801

Issued at 12:32 pm EDT Wednesday 18 January 2017 (issued every 30 minutes, with the page automatically refreshed every 10 minutes)

About weather observations | Map of weather stations | Latest weather observations for TAS | Other Formats
Station Details ID: 096033 Name: LIAWENEE Lat: -41.90 Lon: 146.67 Height: 1057.0 m
Data from the previous 72 hours. | See also: Recent months at Liawenee
Date/Time
EDT
Temp
°C
App
Temp
°C
Dew
Point
°C
Rel
Hum
%
Delta-T
°C
Wind Press
QNH
hPa
Press
MSL
hPa
Rain since
9am
mm
Dir  Spd
km/h
Gust
km/h
Spd
kts
Gust
kts
18/12:30pm 9.2 0.6 2.8 64 2.9 SW 37 52 20 28 1010.1 1007.7 0.0
18/12:03pm 8.6 -0.7 0.8 58 3.4 SW 39 57 21 31 1010.0 1007.6 0.0
18/12:00pm 9.8 0.8 2.2 59 3.4 SW 39 50 21 27 1009.9 1007.5 0.0
18/11:31am 9.3 -0.5 2.4 62 3.1 SW 43 61 23 33 1009.0 1006.6 0.0
18/11:30am 9.7 0.0 3.0 63 3.1 SW 43 57 23 31 1009.0 1006.6 0.0
18/11:00am 7.0 -2.7 4.1 82 1.3 SW 44 59 24 32 1008.6 1006.2 0.0
18/10:34am 8.3 -0.9 3.4 71 2.2 SW 41 59 22 32 1007.8 1005.3 0.0
18/10:30am 7.6 -2.1 2.9 72 2.1 SW 43 57 23 31 1007.8 1005.3 0.0
18/10:00am 7.8 -2.1 1.9 66 2.6 SW 43 65 23 35 1007.7 1005.2 0.0
18/09:30am 6.8 -3.7 1.3 68 2.4 SW 46 72 25 39 1007.2 1004.7 0.0
18/09:00am 5.8 -4.1 1.5 74 1.8 SW 43 65 23 35 1007.1 1004.6 0.0
18/08:30am 6.0 -4.5 1.2 71 2.0 SW 46 65 25 35 1006.4 1004.0 0.0
18/08:03am 4.8 -4.9 2.7 86 0.9 SW 43 61 23 33 1005.9 1003.4 0.0
18/08:00am 5.0 -4.7 2.7 85 1.0 SW 43 57 23 31 1005.9 1003.4 0.0
18/07:31am 5.1 -4.9 0.9 74 1.8 SW 43 61 23 33 1005.0 1002.5 0.0
18/07:30am 5.3 -4.9 1.2 75 1.7 SW 44 61 24 33 1005.0 1002.5 0.0
18/07:08am 4.9 -5.1 0.7 74 1.7 SW 43 63 23 34 1004.8 1002.3 0.0
18/07:00am 5.1 -5.1 1.2 76 1.7 SW 44 61 24 33 1004.7 1002.1 0.0
18/06:39am 5.4 -5.4 1.7 77 1.6 SW 48 74 26 40 1004.1 1001.6 0.0
18/06:30am 5.0 -3.3 2.0 81 1.3 WSW 35 54 19 29 1004.1 1001.6 0.0
18/06:00am 5.1 -3.5 2.8 85 1.0 WSW 37 65 20 35 1004.0 1001.5 0.0
18/05:59am 5.0 -3.5 3.0 87 0.9 WSW 37 61 20 33 1004.0 1001.5 0.0
18/05:30am 5.3 -3.6 2.8 84 1.1 WSW 39 52 21 28 1004.1 1001.6 0.0
18/05:09am 5.8 -2.5 4.3 90 0.7 WSW 37 61 20 33 1003.9 1001.3 0.0
18/05:00am 6.0 -1.9 4.5 90 0.7 WSW 35 52 19 28 1003.4 1000.9 0.0
18/04:58am 6.2 -1.3 4.5 89 0.8 WSW 33 52 18 28 1003.3 1000.8 0.0
18/04:30am 5.9 -1.3 3.2 83 1.2 WSW 30 39 16 21 1002.8 1000.2 0.0
18/04:00am 5.7 -0.8 2.5 80 1.4 WSW 26 35 14 19 1003.3 1000.8 0.0
18/03:30am 5.5 -1.1 1.8 77 1.6 WSW 26 41 14 22 1003.8 1001.2 0.0
18/03:00am 5.6 -1.8 1.7 76 1.7 WSW 30 44 16 24 1003.9 1001.3 0.0
18/02:43am 5.7 -2.3 1.6 75 1.8 WSW 33 52 18 28 1004.0 1001.5 0.0
18/02:30am 6.1 -2.3 1.8 74 1.9 WSW 35 50 19 27 1004.2 1001.7 0.0
18/02:27am 6.1 -1.7 2.0 75 1.8 WSW 32 50 17 27 1004.3 1001.8 0.0
18/02:00am 7.6 1.7 3.8 77 1.8 WSW 24 33 13 18 1004.3 1001.8 0.0
18/01:30am 8.9 2.6 5.8 81 1.5 W 28 37 15 20 1004.3 1001.8 0.0
18/01:00am 9.3 2.3 5.9 79 1.7 WSW 32 41 17 22 1004.5 1002.0 0.0
18/12:30am 9.6 3.4 6.0 78 1.8 WSW 28 43 15 23 1004.5 1002.0 0.0
18/12:00am 10.1 3.2 6.3 77 1.9 W 32 43 17 23 1004.5 1002.0 0.0
 
Date/Time
EDT
Temp
°C
App
Temp
°C
Dew
Point
°C
Rel
Hum
%
Delta-T
°C
Wind Press
QNH
hPa
Press
MSL
hPa
Rain since
9am
mm
Dir  Spd
km/h
Gust
km/h
Spd
kts
Gust
kts
17/11:30pm 10.3 4.3 7.2 81 1.6 W 28 37 15 20 1005.4 1002.9 0.0
17/11:00pm 10.5 5.9 8.1 85 1.2 W 22 32 12 17 1005.7 1003.2 0.0
17/10:30pm 10.7 6.5 8.3 85 1.2 W 20 30 11 16 1005.8 1003.3 0.0
17/10:00pm 11.6 6.6 8.1 79 1.8 W 24 32 13 17 1005.5 1003.0 0.0
17/09:30pm 12.3 7.6 9.3 82 1.6 W 24 35 13 19 1005.3 1002.8 0.0
17/09:00pm 12.9 8.4 10.1 83 1.5 W 24 39 13 21 1005.5 1003.0 0.0
17/08:30pm 13.2 7.6 10.0 81 1.7 WNW 30 48 16 26 1005.5 1003.0 0.0
17/08:00pm 13.1 7.7 11.0 87 1.2 WNW 30 54 16 29 1006.0 1003.5 0.0
17/07:37pm 14.0 8.5 10.6 80 1.9 WNW 30 48 16 26 1005.5 1003.0 0.0
17/07:30pm 14.5 9.3 10.3 76 2.3 WNW 28 43 15 23 1005.5 1003.0 0.0
17/07:02pm 15.4 10.2 10.4 72 2.8 WNW 28 46 15 25 1005.7 1003.2 0.0
17/07:00pm 15.6 10.9 10.6 72 2.8 WNW 26 41 14 22 1005.5 1003.0 0.0
17/06:32pm 15.7 10.0 9.8 68 3.2 W 30 48 16 26 1005.4 1002.9 0.0
17/06:30pm 15.9 9.9 10.2 69 3.2 W 32 48 17 26 1005.4 1002.9 0.0
17/06:21pm 16.4 11.1 9.8 65 3.6 W 28 48 15 26 1005.5 1003.0 0.0
17/06:00pm 16.7 11.0 9.9 64 3.8 WNW 30 46 16 25 1005.2 1002.7 0.0
17/05:30pm 17.2 10.4 9.4 60 4.3 W 35 56 19 30 1006.3 1003.8 0.0
17/05:00pm 17.6 10.7 9.0 57 4.7 W 35 59 19 32 1006.1 1003.6 0.0
17/04:31pm 18.6 11.6 8.6 52 5.5 W 35 54 19 29 1006.0 1003.5 0.0
17/04:30pm 18.5 11.1 8.2 51 5.6 W 37 54 20 29 1006.0 1003.5 0.0
17/04:03pm 20.5 12.6 7.8 44 6.9 WNW 39 57 21 31 1006.0 1003.5 0.0
17/04:00pm 20.9 12.6 7.9 43 7.1 W 41 54 22 29 1006.0 1003.5 0.0
17/03:30pm 20.9 12.7 8.2 44 7.0 W 41 59 22 32 1006.3 1003.8 0.0
17/03:00pm 21.6 14.4 7.8 41 7.6 WNW 35 57 19 31 1006.1 1003.6 0.0
17/02:31pm 22.8 15.3 8.1 39 8.1 W 37 56 20 30 1006.3 1003.8 0.0
17/02:30pm 23.2 16.1 8.1 38 8.4 W 35 48 19 26 1006.3 1003.8 0.0
17/02:02pm 23.2 17.2 8.5 39 8.2 WNW 30 48 16 26 1006.3 1003.8 0.0
17/02:00pm 23.0 16.3 7.5 37 8.5 WNW 32 46 17 25 1006.3 1003.8 0.0
17/01:32pm 23.2 15.5 6.9 35 8.9 W 37 57 20 31 1006.4 1004.0 0.0
17/01:30pm 23.8 15.8 7.4 35 9.0 W 39 56 21 30 1006.4 1004.0 0.0
17/01:03pm 23.4 16.1 7.1 35 8.9 W 35 56 19 30 1006.7 1004.2 0.0
17/01:00pm 23.3 16.0 7.0 35 8.9 W 35 50 19 27 1006.7 1004.2 0.0
17/12:30pm 22.2 14.1 5.2 33 8.9 W 37 59 20 32 1006.9 1004.4 0.0
17/12:00pm 21.1 12.2 3.3 31 9.0 WNW 39 57 21 31 1007.2 1004.7 0.0
17/11:34am 21.4 14.0 4.0 32 8.9 WNW 32 50 17 27 1007.3 1004.9 0.0
17/11:30am 21.3 13.8 3.5 31 9.0 WNW 32 48 17 26 1007.3 1004.9 0.0
17/11:03am 20.5 12.0 3.3 32 8.6 W 37 56 20 30 1007.5 1005.1 0.0
17/11:00am 20.3 12.2 3.5 33 8.5 W 35 52 19 28 1007.7 1005.2 0.0
17/10:56am 20.5 13.4 3.7 33 8.5 WNW 30 50 16 27 1007.5 1005.1 0.0
17/10:30am 19.2 10.0 3.4 35 7.9 W 41 54 22 29 1007.7 1005.2 0.0
17/10:12am 19.3 10.6 2.2 32 8.3 W 37 57 20 31 1007.8 1005.3 0.0
17/10:00am 19.2 11.0 2.6 33 8.2 W 35 52 19 28 1007.7 1005.2 0.0
17/09:30am 18.1 9.1 2.4 35 7.6 W 39 61 21 33 1007.5 1005.1 0.0
17/09:21am 17.9 8.8 1.8 34 7.7 W 39 61 21 33 1007.9 1005.4 0.0
17/09:00am 17.7 9.7 1.7 34 7.6 W 33 48 18 26 1008.1 1005.7 0.0
17/08:45am 16.4 8.5 1.3 36 7.1 WNW 32 52 17 28 1007.9 1005.4 0.0
17/08:30am 15.5 8.0 0.9 37 6.7 WNW 30 46 16 25 1008.0 1005.5 0.0
17/08:23am 16.1 8.9 0.7 35 7.1 WNW 28 46 15 25 1008.0 1005.5 0.0
17/08:00am 14.3 7.8 0.6 39 6.2 WNW 24 35 13 19 1008.0 1005.5 0.0
17/07:30am 13.3 6.0 -0.3 39 6.0 WNW 28 37 15 20 1008.0 1005.5 0.0
17/07:00am 12.6 6.0 -0.6 40 5.8 WNW 24 46 13 25 1007.7 1005.2 0.0
17/06:30am 12.7 5.6 -1.6 37 6.1 WNW 26 43 14 23 1007.3 1004.9 0.0
17/06:00am 12.6 5.8 -2.1 36 6.2 WNW 24 37 13 20 1007.0 1004.5 0.0
17/05:30am 13.2 5.6 -2.3 34 6.5 WNW 28 44 15 24 1007.1 1004.6 0.0
17/05:00am 13.5 5.8 -2.8 32 6.8 WNW 28 43 15 23 1007.2 1004.7 0.0
17/04:30am 13.8 6.8 -3.5 30 7.1 WNW 24 43 13 23 1007.0 1004.5 0.0
17/04:00am 13.8 6.5 -3.0 31 7.0 WNW 26 41 14 22 1007.1 1004.6 0.0
17/03:30am 13.6 6.0 -2.3 33 6.7 WNW 28 41 15 22 1007.3 1004.9 0.0
17/03:00am 13.3 5.7 -2.2 34 6.6 WNW 28 41 15 22 1007.7 1005.2 0.0
17/02:32am 12.9 5.3 -1.8 36 6.2 WNW 28 46 15 25 1007.9 1005.4 0.0
17/02:30am 12.9 5.7 -1.8 36 6.2 WNW 26 46 14 25 1007.9 1005.4 0.0
17/02:00am 13.0 5.5 -1.7 36 6.3 WNW 28 39 15 21 1008.4 1006.0 0.0
17/01:30am 12.9 5.1 -1.1 38 6.0 WNW 30 43 16 23 1008.8 1006.3 0.0
17/01:00am 12.9 5.5 -0.7 39 5.9 WNW 28 39 15 21 1009.0 1006.6 0.0
17/12:30am 12.9 5.4 -1.1 38 6.0 WNW 28 39 15 21 1009.1 1006.7 0.0
17/12:00am 12.2 5.5 -1.0 40 5.7 WNW 24 37 13 20 1009.5 1007.1 0.0
 
Date/Time
EDT
Temp
°C
App
Temp
°C
Dew
Point
°C
Rel
Hum
%
Delta-T
°C
Wind Press
QNH
hPa
Press
MSL
hPa
Rain since
9am
mm
Dir  Spd
km/h
Gust
km/h
Spd
kts
Gust
kts
16/11:30pm 12.0 5.8 -0.2 43 5.3 WNW 22 33 12 18 1010.0 1007.6 0.0
16/11:00pm 11.9 6.4 0.4 45 5.1 W 19 28 10 15 1010.4 1008.0 0.0
16/10:30pm 13.2 6.7 0.3 41 5.7 WNW 24 39 13 21 1010.1 1007.7 0.0
16/10:00pm 13.8 6.8 2.1 45 5.5 WNW 28 41 15 22 1010.0 1007.6 0.0
16/09:30pm 14.2 8.2 3.1 47 5.3 WNW 24 37 13 20 1009.9 1007.5 0.0
16/09:00pm 14.5 9.0 3.9 49 5.2 WNW 22 35 12 19 1010.1 1007.7 0.0
16/08:30pm 15.8 10.6 3.3 43 6.1 WNW 20 37 11 20 1009.8 1007.4 0.0
16/08:00pm 17.0 10.0 2.2 37 7.1 W 28 43 15 23 1009.9 1007.5 0.0
16/07:30pm 18.1 10.2 2.4 35 7.6 W 33 50 18 27 1010.0 1007.6 0.0
16/07:00pm 19.1 11.7 1.6 31 8.4 WNW 30 48 16 26 1010.1 1007.7 0.0
16/06:35pm 20.4 13.1 2.3 30 8.9 W 30 48 16 26 1010.1 1007.7 0.0
16/06:30pm 20.1 12.2 2.0 30 8.8 W 33 48 18 26 1010.0 1007.6 0.0
16/06:01pm 20.4 11.4 0.3 26 9.5 W 37 56 20 30 1010.2 1007.8 0.0
16/06:00pm 20.6 11.6 0.4 26 9.6 W 37 54 20 29 1010.2 1007.8 0.0
16/05:40pm 21.6 14.2 3.8 31 9.1 W 32 50 17 27 1010.3 1007.9 0.0
16/05:30pm 21.4 14.3 3.6 31 9.0 W 30 44 16 24 1010.4 1008.0 0.0
16/05:00pm 21.3 13.2 3.0 30 9.2 W 35 44 19 24 1010.6 1008.3 0.0
16/04:31pm 22.4 13.4 0.3 23 10.6 W 37 56 20 30 1010.9 1008.5 0.0
16/04:30pm 22.6 13.6 0.4 23 10.7 W 37 52 20 28 1010.9 1008.5 0.0
16/04:18pm 23.1 15.5 2.6 26 10.3 W 32 50 17 27 1010.9 1008.5 0.0
16/04:00pm 22.6 14.8 1.6 25 10.3 W 32 46 17 25 1011.0 1008.6 0.0
16/03:30pm 23.1 16.1 4.1 29 9.8 W 30 44 16 24 1011.0 1008.6 0.0
16/03:00pm 22.9 15.8 3.4 28 10.0 W 30 41 16 22 1011.2 1008.8 0.0
16/02:30pm 22.5 16.5 3.1 28 9.8 WNW 24 35 13 19 1011.3 1008.9 0.0
16/02:00pm 21.7 14.2 1.4 26 9.9 W 30 43 16 23 1011.4 1009.0 0.0
16/01:30pm 21.2 13.5 2.5 29 9.3 W 32 46 17 25 1011.6 1009.3 0.0
16/01:00pm 21.2 14.3 2.5 29 9.3 WNW 28 43 15 23 1012.0 1009.6 0.0
16/12:30pm 20.3 13.3 2.2 30 8.9 W 28 41 15 22 1012.0 1009.6 0.0
16/12:00pm 20.1 13.9 4.2 35 8.1 W 26 37 14 20 1012.0 1009.6 0.0
16/11:30am 19.7 13.0 3.4 34 8.1 W 28 39 15 21 1012.1 1009.7 0.0
16/11:00am 18.5 10.8 2.4 34 7.8 W 32 39 17 21 1012.1 1009.7 0.0
16/10:30am 18.4 11.1 2.7 35 7.7 W 30 39 16 21 1012.3 1010.0 0.0
16/10:00am 17.5 11.0 0.6 32 7.9 WSW 24 35 13 19 1012.3 1010.0 0.0
16/09:30am 17.0 12.8 3.7 41 6.6 W 15 24 8 13 1012.2 1009.8 0.0
16/09:00am 14.5 9.2 4.8 52 4.8 W 22 30 12 16 1012.1 1009.7 0.0
16/08:30am 11.6 7.1 5.9 68 2.8 W 19 26 10 14 1012.1 1009.7 0.0
16/08:00am 8.8 3.5 5.2 78 1.7 W 22 33 12 18 1012.4 1010.1 0.0
16/07:30am 7.2 2.5 5.3 88 0.9 WSW 19 26 10 14 1012.3 1010.0 0.0
16/07:00am 5.6 1.2 4.7 94 0.4 WSW 17 20 9 11 1012.1 1009.7 0.0
16/06:30am 4.2 0.0 3.9 98 0.1 W 15 20 8 11 1011.9 1009.5 0.0
16/06:00am 3.5 -0.8 3.4 99 0.0 W 15 20 8 11 1012.0 1009.6 0.0
16/05:30am 3.0 -1.4 2.9 99 0.0 W 15 17 8 9 1011.5 1009.2 0.0
16/05:00am 3.3 -0.7 3.0 98 0.1 W 13 15 7 8 1011.5 1009.2 0.0
16/04:30am 3.5 -0.1 3.2 98 0.1 W 11 13 6 7 1011.5 1009.2 0.0
16/04:00am 3.9 -0.3 3.6 98 0.1 W 15 20 8 11 1011.6 1009.3 0.0
16/03:30am 4.2 0.4 3.9 98 0.1 W 13 19 7 10 1011.6 1009.3 0.0
16/03:00am 3.8 -0.1 3.4 97 0.2 W 13 20 7 11 1011.8 1009.4 0.0
16/02:30am 4.8 0.7 4.1 95 0.3 W 15 22 8 12 1012.1 1009.7 0.0
16/02:00am 5.4 1.7 4.4 93 0.5 W 13 17 7 9 1012.4 1010.1 0.0
16/01:30am 5.4 2.1 4.4 93 0.5 WNW 11 19 6 10 1012.9 1010.5 0.0
16/01:00am 5.5 2.2 4.5 93 0.5 WNW 11 15 6 8 1013.2 1010.9 0.0
16/12:30am 5.2 2.3 4.8 97 0.2 WNW 9 17 5 9 1013.6 1011.3 0.0
16/12:00am 2.2 0.5 1.8 97 0.2 CALM 0 0 0 0 1013.7 1011.4 0.0
 
Date/Time
EDT
Temp
°C
App
Temp
°C
Dew
Point
°C
Rel
Hum
%
Delta-T
°C
Wind Press
QNH
hPa
Press
MSL
hPa
Rain since
9am
mm
Dir  Spd
km/h
Gust
km/h
Spd
kts
Gust
kts
15/11:30pm 3.5 0.8 2.6 94 0.4 WNW 6 9 3 5 1013.7 1011.4 0.0
15/11:00pm 4.6 2.1 3.9 95 0.3 W 6 7 3 4 1014.1 1011.8 0.0
15/10:30pm 5.2 1.5 4.3 94 0.4 WSW 13 17 7 9 1014.3 1012.0 0.0
15/10:00pm 5.4 2.8 4.1 91 0.6 WNW 7 11 4 6 1014.5 1012.2 0.0
15/09:30pm 5.6 1.9 4.2 91 0.6 WSW 13 20 7 11 1014.4 1012.1 0.0
15/09:00pm 6.0 2.3 4.3 89 0.8 WSW 13 15 7 8 1014.1 1011.8 0.0
15/08:30pm 7.0 3.0 5.0 87 0.9 SW 15 20 8 11 1014.1 1011.8 0.0
15/08:00pm 8.8 3.6 5.5 80 1.6 SSW 22 28 12 15 1014.1 1011.8 0.0
15/07:30pm 11.1 6.0 5.8 70 2.6 SW 22 26 12 14 1013.9 1011.5 0.0
15/07:00pm 13.0 8.0 6.4 64 3.3 SW 22 30 12 16 1013.6 1011.3 0.0
15/06:30pm 14.0 7.7 5.9 58 4.1 WSW 28 35 15 19 1013.3 1011.0 0.0
15/06:00pm 14.4 7.7 5.5 55 4.5 WSW 30 39 16 21 1013.3 1011.0 0.0
15/05:30pm 15.2 9.3 6.0 54 4.7 SW 26 37 14 20 1013.5 1011.2 0.0
15/05:00pm 15.4 9.1 5.6 52 5.0 WSW 28 41 15 22 1013.9 1011.5 0.0
15/04:30pm 15.8 9.4 5.4 50 5.3 WSW 28 39 15 21 1014.0 1011.7 0.0
15/04:00pm 15.9 9.0 4.6 47 5.6 WSW 30 39 16 21 1014.1 1011.8 0.0
15/03:30pm 16.2 10.2 7.2 55 4.7 SW 28 35 15 19 1014.1 1011.8 0.0
15/03:00pm 15.5 9.7 6.2 54 4.8 WSW 26 35 14 19 1014.2 1011.9 0.0
15/02:30pm 14.8 7.9 4.5 50 5.1 WSW 30 39 16 21 1014.2 1011.9 0.0
15/02:00pm 14.5 10.0 6.8 60 4.0 WSW 20 28 11 15 1014.2 1011.9 0.0
15/01:30pm 13.7 9.4 7.0 64 3.4 SW 19 32 10 17 1014.3 1012.0 0.0
15/01:00pm 13.4 7.4 7.2 66 3.2 SW 28 37 15 20 1014.3 1012.0 0.0

Other Formats:

Comma delimited format used in spreadsheet applications
http://www.bom.gov.au/fwo/IDT60801/IDT60801.95959.axf

JavaScript Object Notation format (JSON) in row-major order
http://www.bom.gov.au/fwo/IDT60801/IDT60801.95959.json